Ravenel, South Carolina
Current Conditions -  °F | °C
As of 4:15 PM on Friday 24 Oct 2014 (Local Time) from KJZI Reporting Station
Clear Clear  
Wind Chill: 72°   Ceiling: Unl
Heat Index: 72°   Visibility: 10mi
Dew Point: 52°   Wind: 0mph
Humidity: 50%   Direction: NA
Pressure: 29.98"   Gusts: NA
Location:  32.76°N, 80.25°W
Report Text: KJZI 242015Z AUTO 00000KT 10SM CLR 22/11 A2998 RMK A02 P000
Loading
Personal Weather Stations






























Interactive Weather Map
Tropical Storm Tracking
New forecast layout! Learn more

10-Day Weather Forecast

Advertisements
Track Severe Weather on mobile